createdAt,value
2022-12-04T00:01:48.142Z,80.90
2022-12-04T00:06:54.006Z,80.92
2022-12-04T00:11:58.995Z,81.67
2022-12-04T00:17:00.882Z,82.33
2022-12-04T00:22:02.765Z,81.97
2022-12-04T00:27:04.727Z,82.02
2022-12-04T00:32:06.680Z,81.52
2022-12-04T00:37:08.632Z,81.69
2022-12-04T00:42:10.502Z,81.59
2022-12-04T00:47:12.309Z,81.64
2022-12-04T00:52:14.144Z,81.72
2022-12-04T00:57:16.223Z,81.41
2022-12-04T01:02:18.111Z,81.12
2022-12-04T01:07:19.964Z,81.02
2022-12-04T01:12:21.805Z,81.60
2022-12-04T01:17:23.689Z,80.93
2022-12-04T01:22:25.613Z,80.89
2022-12-04T01:27:27.513Z,80.72
2022-12-04T01:32:29.464Z,80.23
2022-12-04T01:37:31.822Z,79.27
2022-12-04T01:42:33.658Z,79.28
2022-12-04T01:47:35.522Z,79.19
2022-12-04T01:52:37.388Z,78.77
2022-12-04T01:57:39.249Z,78.31
2022-12-04T02:02:46.084Z,78.50
2022-12-04T02:07:49.693Z,77.96
2022-12-04T02:12:56.466Z,78.94
2022-12-04T02:18:06.271Z,78.67
2022-12-04T02:23:26.770Z,78.93
2022-12-04T02:28:29.015Z,78.36
2022-12-04T02:33:46.728Z,79.03
2022-12-04T02:38:55.630Z,78.98
2022-12-04T02:44:15.716Z,78.74
2022-12-04T02:49:35.474Z,78.97
2022-12-04T02:54:45.994Z,79.02
2022-12-04T02:59:48.140Z,78.30
2022-12-04T03:04:50.177Z,78.13
2022-12-04T03:09:54.964Z,78.48
2022-12-04T03:15:00.745Z,78.32
2022-12-04T03:20:08.662Z,77.68
2022-12-04T03:25:10.720Z,77.88
2022-12-04T03:30:18.108Z,77.97
2022-12-04T03:35:27.074Z,78.46
2022-12-04T03:40:34.655Z,77.50
2022-12-04T03:45:44.734Z,77.96
2022-12-04T03:51:17.347Z,77.44
2022-12-04T03:56:23.778Z,77.42
2022-12-04T04:01:30.798Z,76.76
2022-12-04T04:06:35.000Z,77.24
2022-12-04T04:11:54.568Z,76.24
2022-12-04T04:17:00.750Z,75.95
2022-12-04T04:22:04.515Z,76.32
2022-12-04T04:27:06.512Z,76.46
2022-12-04T04:32:32.826Z,76.39
2022-12-04T04:37:44.913Z,76.71
2022-12-04T04:42:47.283Z,76.12
2022-12-04T04:48:02.916Z,75.97
2022-12-04T04:53:06.749Z,76.03
2022-12-04T04:58:14.170Z,77.20
2022-12-04T05:03:16.193Z,77.37
2022-12-04T05:08:18.288Z,76.54
2022-12-04T05:13:20.621Z,76.94
2022-12-04T05:18:22.257Z,76.55
2022-12-04T05:23:24.296Z,76.04
2022-12-04T05:28:26.154Z,76.28
2022-12-04T05:33:28.157Z,76.60
2022-12-04T05:38:33.358Z,76.39
2022-12-04T05:43:36.003Z,75.53
2022-12-04T05:48:38.118Z,75.16
2022-12-04T05:53:40.060Z,75.02
2022-12-04T05:58:41.886Z,74.70
2022-12-04T06:03:43.876Z,74.29
2022-12-04T06:08:45.916Z,74.18
2022-12-04T06:13:48.420Z,73.86
2022-12-04T06:18:54.429Z,73.17
2022-12-04T06:23:56.762Z,73.09
2022-12-04T06:28:59.017Z,72.92
2022-12-04T06:34:00.876Z,72.51
2022-12-04T06:39:02.939Z,72.51
2022-12-04T06:44:04.987Z,72.35
2022-12-04T06:49:07.071Z,71.70
2022-12-04T06:54:09.659Z,71.35
2022-12-04T06:59:12.266Z,71.29
2022-12-04T07:04:14.135Z,70.62
2022-12-04T07:09:16.855Z,70.19
2022-12-04T07:14:18.729Z,69.42
2022-12-04T07:19:20.651Z,69.13
2022-12-04T07:24:22.598Z,69.27
2022-12-04T07:29:24.383Z,68.39
2022-12-04T07:34:26.397Z,67.79
2022-12-04T07:39:28.259Z,66.80
2022-12-04T07:44:31.760Z,66.90
2022-12-04T07:49:33.771Z,66.93
2022-12-04T07:54:37.726Z,66.28
2022-12-04T07:59:40.051Z,67.01
2022-12-04T08:04:41.951Z,66.46
2022-12-04T08:09:44.005Z,65.96
2022-12-04T08:14:45.886Z,65.80
2022-12-04T08:19:47.700Z,65.06
2022-12-04T08:24:49.679Z,64.64
2022-12-04T08:29:51.800Z,65.07
2022-12-04T08:34:55.947Z,64.81
2022-12-04T08:39:58.292Z,64.49
2022-12-04T08:45:00.554Z,63.91
2022-12-04T08:50:02.585Z,64.07
2022-12-04T08:55:06.127Z,63.17
2022-12-04T09:00:08.463Z,63.28
2022-12-04T09:05:10.509Z,62.92
2022-12-04T09:10:14.186Z,62.08
2022-12-04T09:15:16.107Z,61.66
2022-12-04T09:20:18.048Z,61.47
2022-12-04T09:25:19.801Z,60.08
2022-12-04T09:30:21.588Z,58.89
2022-12-04T09:35:23.493Z,58.02
2022-12-04T09:40:37.270Z,57.06
2022-12-04T09:45:48.865Z,56.38
2022-12-04T09:50:50.702Z,55.47
2022-12-04T09:55:58.357Z,54.58
2022-12-04T10:01:01.537Z,54.67
2022-12-04T10:06:23.352Z,53.25
2022-12-04T10:11:32.601Z,53.62
2022-12-04T10:16:55.390Z,53.05
2022-12-04T10:22:03.219Z,53.08
2022-12-04T10:27:15.313Z,52.65
2022-12-04T10:32:20.669Z,52.46
2022-12-04T10:37:22.641Z,52.35
2022-12-04T10:42:29.668Z,52.19
2022-12-04T10:47:31.649Z,51.87
2022-12-04T10:52:33.509Z,52.03
2022-12-04T10:57:43.756Z,51.63
2022-12-04T11:02:45.795Z,51.02
2022-12-04T11:07:48.211Z,50.70
2022-12-04T11:13:01.615Z,50.59
2022-12-04T11:18:17.513Z,50.51
2022-12-04T11:23:19.453Z,50.48
2022-12-04T11:28:42.878Z,50.50
2022-12-04T11:33:52.861Z,49.99
2022-12-04T11:39:03.641Z,50.23
2022-12-04T11:44:06.353Z,49.99
2022-12-04T11:49:19.472Z,50.23
2022-12-04T11:54:45.753Z,50.44
2022-12-04T12:00:09.486Z,50.76
2022-12-04T12:05:36.298Z,50.24
2022-12-04T12:11:05.669Z,50.96
2022-12-04T12:16:23.140Z,50.99
2022-12-04T12:21:33.929Z,51.38
2022-12-04T12:27:14.480Z,51.12
2022-12-04T12:32:38.221Z,51.37
2022-12-04T12:37:53.507Z,51.82
2022-12-04T12:43:01.566Z,51.79
2022-12-04T12:48:17.065Z,51.96
2022-12-04T12:53:20.439Z,54.66
2022-12-04T12:58:42.371Z,56.40
2022-12-04T13:04:09.316Z,58.16
2022-12-04T13:09:22.774Z,58.73
2022-12-04T13:14:28.834Z,58.92
2022-12-04T13:19:38.589Z,59.64
2022-12-04T13:25:11.918Z,61.07
2022-12-04T13:30:20.917Z,61.58
2022-12-04T13:35:37.889Z,61.91
2022-12-04T13:40:41.477Z,62.95
2022-12-04T13:45:45.534Z,62.69
2022-12-04T13:50:47.588Z,63.21
2022-12-04T13:55:55.815Z,64.23
2022-12-04T14:01:21.501Z,64.56
2022-12-04T14:06:25.297Z,64.87
2022-12-04T14:11:27.568Z,65.62
2022-12-04T14:16:30.824Z,65.59
2022-12-04T14:21:43.319Z,65.33
2022-12-04T14:32:18.097Z,65.27
2022-12-04T14:37:26.044Z,65.19
2022-12-04T14:42:33.021Z,66.02
2022-12-04T14:47:56.009Z,65.80
2022-12-04T14:53:35.103Z,66.05
2022-12-04T14:58:37.826Z,66.66
2022-12-04T15:03:48.068Z,66.37
2022-12-04T15:08:57.295Z,66.93
2022-12-04T15:14:05.243Z,66.15
2022-12-04T15:19:18.180Z,66.43
2022-12-04T15:24:19.767Z,66.91
2022-12-04T15:29:23.133Z,66.39
2022-12-04T15:34:37.386Z,67.11
2022-12-04T15:39:49.823Z,66.40
2022-12-04T15:45:08.644Z,65.80
2022-12-04T15:50:13.555Z,66.23
2022-12-04T15:55:19.452Z,65.90
2022-12-04T16:00:33.130Z,66.14
2022-12-04T16:05:35.475Z,66.40
2022-12-04T16:10:37.267Z,67.21
2022-12-04T16:15:41.053Z,66.38
2022-12-04T16:20:43.155Z,67.07
2022-12-04T16:25:45.028Z,66.79
2022-12-04T16:30:50.266Z,67.45
2022-12-04T16:35:52.205Z,66.91
2022-12-04T16:40:56.207Z,67.25
2022-12-04T16:46:00.202Z,67.16
2022-12-04T16:51:02.404Z,67.08
2022-12-04T16:56:04.653Z,66.97
2022-12-04T17:01:07.012Z,66.08
2022-12-04T17:06:08.678Z,66.29
2022-12-04T17:11:12.839Z,66.14
2022-12-04T17:16:15.299Z,66.41
2022-12-04T17:21:17.399Z,66.14
2022-12-04T17:26:19.464Z,65.55
2022-12-04T17:31:25.494Z,65.57
2022-12-04T17:36:27.732Z,66.02
2022-12-04T17:41:29.569Z,65.30
2022-12-04T17:46:31.677Z,65.75
2022-12-04T17:57:42.576Z,65.13
2022-12-04T18:02:48.703Z,64.65
2022-12-04T18:07:55.769Z,65.02
2022-12-04T18:13:05.362Z,65.03
2022-12-04T18:18:10.180Z,65.18
2022-12-04T18:23:12.051Z,65.11
2022-12-04T18:28:15.421Z,64.83
2022-12-04T18:33:19.101Z,65.15
2022-12-04T18:38:22.210Z,65.24
2022-12-04T18:43:24.518Z,64.69
2022-12-04T18:48:26.430Z,65.17
2022-12-04T18:53:28.320Z,65.04
2022-12-04T18:58:32.335Z,64.90
2022-12-04T19:03:34.617Z,65.12
2022-12-04T19:08:41.404Z,65.48
2022-12-04T19:13:45.235Z,66.01
2022-12-04T19:18:47.245Z,65.76
2022-12-04T19:23:54.485Z,65.24
2022-12-04T19:28:56.685Z,65.05
2022-12-04T19:33:58.748Z,65.96
2022-12-04T19:39:02.887Z,66.02
2022-12-04T19:44:25.941Z,65.81
2022-12-04T19:49:26.946Z,66.86
2022-12-04T19:54:28.776Z,66.36
2022-12-04T19:59:36.007Z,66.53
2022-12-04T20:04:39.142Z,66.74
2022-12-04T20:09:46.062Z,66.86
2022-12-04T20:14:51.401Z,67.01
2022-12-04T20:19:53.215Z,66.73
2022-12-04T20:24:55.070Z,67.30
2022-12-04T20:29:57.181Z,67.12
2022-12-04T20:34:59.186Z,67.45
2022-12-04T20:40:01.063Z,67.85
2022-12-04T20:45:02.934Z,68.31
2022-12-04T20:50:06.304Z,68.11
2022-12-04T20:55:09.127Z,68.24
2022-12-04T21:00:11.576Z,68.13
2022-12-04T21:17:45.230Z,69.23
2022-12-04T21:22:47.303Z,68.88
2022-12-04T21:27:49.169Z,69.35
2022-12-04T21:38:11.138Z,68.38
2022-12-04T21:43:12.927Z,68.88
2022-12-04T21:48:14.755Z,69.08
2022-12-04T21:53:16.683Z,68.45
2022-12-04T21:58:19.050Z,69.38
2022-12-04T22:03:20.956Z,68.31
2022-12-04T22:08:22.913Z,68.42
2022-12-04T22:13:24.756Z,69.04
2022-12-04T22:18:26.722Z,68.87
2022-12-04T22:23:28.557Z,67.98
2022-12-04T22:28:30.417Z,68.27
2022-12-04T22:33:32.244Z,68.79
2022-12-04T22:38:42.447Z,68.35
2022-12-04T22:43:54.353Z,68.71
2022-12-04T22:48:56.168Z,68.27
2022-12-04T22:53:58.387Z,68.35
2022-12-04T22:59:00.250Z,68.74
2022-12-04T23:04:02.793Z,68.95
2022-12-04T23:09:10.072Z,68.98
2022-12-04T23:14:14.601Z,68.64
2022-12-04T23:19:17.597Z,69.26
2022-12-04T23:24:19.423Z,69.02
2022-12-04T23:34:43.026Z,69.30
2022-12-04T23:39:44.914Z,68.73
2022-12-04T23:44:46.673Z,69.66
2022-12-04T23:49:48.534Z,69.04
2022-12-04T23:54:50.349Z,69.47
2022-12-04T23:59:52.472Z,69.62
